sensor_id;sensor_type;location;lat;lon;timestamp;pressure;altitude;pressure_sealevel;temperature;humidity
30708;BME280;17458;48.958;8.284;2024-03-06T00:01:36;100537.50;;;8.07;77.59
30708;BME280;17458;48.958;8.284;2024-03-06T00:04:20;100546.69;;;7.99;77.63
30708;BME280;17458;48.958;8.284;2024-03-06T00:07:04;100545.53;;;8.08;77.21
30708;BME280;17458;48.958;8.284;2024-03-06T00:09:48;100543.69;;;8.07;77.22
30708;BME280;17458;48.958;8.284;2024-03-06T00:12:32;100547.66;;;8.14;77.03
30708;BME280;17458;48.958;8.284;2024-03-06T00:15:17;100541.97;;;8.08;77.34
30708;BME280;17458;48.958;8.284;2024-03-06T00:18:00;100542.53;;;8.17;76.98
30708;BME280;17458;48.958;8.284;2024-03-06T00:20:46;100541.50;;;8.15;76.93
30708;BME280;17458;48.958;8.284;2024-03-06T00:23:30;100546.19;;;8.19;77.09
30708;BME280;17458;48.958;8.284;2024-03-06T00:26:15;100545.16;;;8.17;77.57
30708;BME280;17458;48.958;8.284;2024-03-06T00:28:59;100548.47;;;8.13;77.55
30708;BME280;17458;48.958;8.284;2024-03-06T00:31:45;100551.47;;;8.19;77.35
30708;BME280;17458;48.958;8.284;2024-03-06T00:34:29;100555.13;;;8.21;77.37
30708;BME280;17458;48.958;8.284;2024-03-06T00:37:13;100554.78;;;8.30;77.03
30708;BME280;17458;48.958;8.284;2024-03-06T00:39:57;100552.78;;;8.26;77.02
30708;BME280;17458;48.958;8.284;2024-03-06T00:42:41;100557.44;;;8.30;76.85
30708;BME280;17458;48.958;8.284;2024-03-06T00:45:25;100555.31;;;8.37;76.85
30708;BME280;17458;48.958;8.284;2024-03-06T00:48:09;100567.44;;;8.34;77.04
30708;BME280;17458;48.958;8.284;2024-03-06T00:50:53;100564.91;;;8.22;77.20
30708;BME280;17458;48.958;8.284;2024-03-06T00:53:38;100568.47;;;8.23;77.14
30708;BME280;17458;48.958;8.284;2024-03-06T00:56:21;100558.41;;;8.17;77.32
30708;BME280;17458;48.958;8.284;2024-03-06T00:59:06;100554.22;;;8.21;77.14
30708;BME280;17458;48.958;8.284;2024-03-06T01:01:49;100551.69;;;8.22;77.23
30708;BME280;17458;48.958;8.284;2024-03-06T01:04:33;100551.31;;;8.03;77.25
30708;BME280;17458;48.958;8.284;2024-03-06T01:07:17;100555.91;;;8.05;77.40
30708;BME280;17458;48.958;8.284;2024-03-06T01:10:02;100551.72;;;8.09;77.08
30708;BME280;17458;48.958;8.284;2024-03-06T01:12:46;100555.91;;;8.05;77.08
30708;BME280;17458;48.958;8.284;2024-03-06T01:15:31;100559.47;;;8.06;77.09
30708;BME280;17458;48.958;8.284;2024-03-06T01:18:14;100554.78;;;8.02;76.89
30708;BME280;17458;48.958;8.284;2024-03-06T01:20:58;100559.09;;;8.00;77.32
30708;BME280;17458;48.958;8.284;2024-03-06T01:23:42;100560.44;;;7.93;77.09
30708;BME280;17458;48.958;8.284;2024-03-06T01:26:27;100566.88;;;7.83;77.08
30708;BME280;17458;48.958;8.284;2024-03-06T01:29:11;100565.44;;;7.75;77.21
30708;BME280;17458;48.958;8.284;2024-03-06T01:31:55;100568.28;;;7.78;77.13
30708;BME280;17458;48.958;8.284;2024-03-06T01:34:39;100574.31;;;7.63;77.11
30708;BME280;17458;48.958;8.284;2024-03-06T01:37:23;100564.47;;;7.60;77.46
30708;BME280;17458;48.958;8.284;2024-03-06T01:40:07;100567.84;;;7.58;77.34
30708;BME280;17458;48.958;8.284;2024-03-06T01:42:52;100564.47;;;7.47;77.55
30708;BME280;17458;48.958;8.284;2024-03-06T01:45:36;100566.09;;;7.32;78.17
30708;BME280;17458;48.958;8.284;2024-03-06T01:48:23;100563.78;;;7.36;78.81
30708;BME280;17458;48.958;8.284;2024-03-06T01:51:09;100567.63;;;7.55;77.69
30708;BME280;17458;48.958;8.284;2024-03-06T01:53:54;100566.41;;;7.36;77.95
30708;BME280;17458;48.958;8.284;2024-03-06T01:56:39;100566.44;;;7.23;79.43
30708;BME280;17458;48.958;8.284;2024-03-06T01:59:26;100566.03;;;7.43;78.96
30708;BME280;17458;48.958;8.284;2024-03-06T02:02:10;100568.25;;;7.37;78.76
30708;BME280;17458;48.958;8.284;2024-03-06T02:04:57;100572.59;;;7.50;78.95
30708;BME280;17458;48.958;8.284;2024-03-06T02:07:44;100575.84;;;7.59;78.98
30708;BME280;17458;48.958;8.284;2024-03-06T02:10:28;100574.34;;;7.50;79.55
30708;BME280;17458;48.958;8.284;2024-03-06T02:13:12;100572.28;;;7.45;80.10
30708;BME280;17458;48.958;8.284;2024-03-06T02:15:57;100562.44;;;7.56;79.77
30708;BME280;17458;48.958;8.284;2024-03-06T02:18:55;100562.44;;;7.56;80.22
30708;BME280;17458;48.958;8.284;2024-03-06T02:21:40;100567.81;;;7.44;80.83
30708;BME280;17458;48.958;8.284;2024-03-06T02:24:24;100559.72;;;7.55;80.65
30708;BME280;17458;48.958;8.284;2024-03-06T02:27:09;100562.53;;;7.71;79.83
30708;BME280;17458;48.958;8.284;2024-03-06T02:29:52;100563.72;;;7.76;79.42
30708;BME280;17458;48.958;8.284;2024-03-06T02:32:36;100559.13;;;7.73;79.19
30708;BME280;17458;48.958;8.284;2024-03-06T02:35:20;100554.41;;;7.68;79.10
30708;BME280;17458;48.958;8.284;2024-03-06T02:38:04;100552.13;;;7.74;79.13
30708;BME280;17458;48.958;8.284;2024-03-06T02:40:48;100560.59;;;7.68;79.05
30708;BME280;17458;48.958;8.284;2024-03-06T02:43:33;100560.69;;;7.70;78.82
30708;BME280;17458;48.958;8.284;2024-03-06T02:46:17;100557.50;;;7.75;78.67
30708;BME280;17458;48.958;8.284;2024-03-06T02:49:01;100560.81;;;7.71;78.79
30708;BME280;17458;48.958;8.284;2024-03-06T02:51:44;100562.94;;;7.64;78.61
30708;BME280;17458;48.958;8.284;2024-03-06T02:54:28;100570.66;;;7.61;79.12
30708;BME280;17458;48.958;8.284;2024-03-06T02:57:13;100575.22;;;7.63;79.15
30708;BME280;17458;48.958;8.284;2024-03-06T02:59:57;100564.75;;;7.65;79.15
30708;BME280;17458;48.958;8.284;2024-03-06T03:02:42;100574.72;;;7.69;79.03
30708;BME280;17458;48.958;8.284;2024-03-06T03:05:26;100572.91;;;7.68;78.73
30708;BME280;17458;48.958;8.284;2024-03-06T03:08:09;100580.50;;;7.76;78.80
30708;BME280;17458;48.958;8.284;2024-03-06T03:10:53;100579.19;;;7.70;78.49
30708;BME280;17458;48.958;8.284;2024-03-06T03:13:37;100582.94;;;7.73;78.85
30708;BME280;17458;48.958;8.284;2024-03-06T03:16:21;100580.81;;;7.68;78.92
30708;BME280;17458;48.958;8.284;2024-03-06T03:19:05;100583.97;;;7.62;79.37
30708;BME280;17458;48.958;8.284;2024-03-06T03:21:49;100584.66;;;7.73;79.28
30708;BME280;17458;48.958;8.284;2024-03-06T03:24:33;100577.84;;;7.76;79.18
30708;BME280;17458;48.958;8.284;2024-03-06T03:27:17;100587.41;;;7.74;79.01
30708;BME280;17458;48.958;8.284;2024-03-06T03:30:02;100588.22;;;7.73;79.01
30708;BME280;17458;48.958;8.284;2024-03-06T03:32:47;100588.56;;;7.65;78.93
30708;BME280;17458;48.958;8.284;2024-03-06T03:35:32;100582.34;;;7.64;78.85
30708;BME280;17458;48.958;8.284;2024-03-06T03:38:16;100579.91;;;7.67;78.59
30708;BME280;17458;48.958;8.284;2024-03-06T03:41:01;100585.19;;;7.67;79.13
30708;BME280;17458;48.958;8.284;2024-03-06T03:43:47;100586.31;;;7.71;78.72
30708;BME280;17458;48.958;8.284;2024-03-06T03:46:31;100584.50;;;7.70;79.08
30708;BME280;17458;48.958;8.284;2024-03-06T03:49:15;100587.63;;;7.64;78.61
30708;BME280;17458;48.958;8.284;2024-03-06T03:52:00;100588.44;;;7.63;78.59
30708;BME280;17458;48.958;8.284;2024-03-06T03:54:44;100595.25;;;7.60;78.43
30708;BME280;17458;48.958;8.284;2024-03-06T03:57:27;100599.22;;;7.66;78.91
30708;BME280;17458;48.958;8.284;2024-03-06T04:00:13;100600.03;;;7.65;78.48
30708;BME280;17458;48.958;8.284;2024-03-06T04:02:57;100602.25;;;7.59;78.33
30708;BME280;17458;48.958;8.284;2024-03-06T04:05:40;100601.69;;;7.50;78.08
30708;BME280;17458;48.958;8.284;2024-03-06T04:08:24;100602.19;;;7.44;78.51
30708;BME280;17458;48.958;8.284;2024-03-06T04:11:08;100599.84;;;7.49;78.49
30708;BME280;17458;48.958;8.284;2024-03-06T04:13:52;100605.66;;;7.43;78.77
30708;BME280;17458;48.958;8.284;2024-03-06T04:16:36;100603.00;;;7.30;78.69
30708;BME280;17458;48.958;8.284;2024-03-06T04:19:22;100602.09;;;7.30;78.99
30708;BME280;17458;48.958;8.284;2024-03-06T04:22:06;100610.09;;;7.31;78.89
30708;BME280;17458;48.958;8.284;2024-03-06T04:24:51;100611.53;;;7.39;79.17
30708;BME280;17458;48.958;8.284;2024-03-06T04:27:35;100611.44;;;7.38;78.86
30708;BME280;17458;48.958;8.284;2024-03-06T04:30:19;100613.88;;;7.35;79.40
30708;BME280;17458;48.958;8.284;2024-03-06T04:33:03;100628.69;;;7.33;79.23
30708;BME280;17458;48.958;8.284;2024-03-06T04:35:47;100627.41;;;7.26;79.13
30708;BME280;17458;48.958;8.284;2024-03-06T04:38:31;100625.25;;;7.34;79.13
30708;BME280;17458;48.958;8.284;2024-03-06T04:41:18;100633.38;;;7.37;78.92
30708;BME280;17458;48.958;8.284;2024-03-06T04:44:02;100632.03;;;7.30;79.41
30708;BME280;17458;48.958;8.284;2024-03-06T04:46:49;100636.13;;;7.38;78.89
30708;BME280;17458;48.958;8.284;2024-03-06T04:49:34;100638.34;;;7.32;78.92
30708;BME280;17458;48.958;8.284;2024-03-06T04:52:18;100643.75;;;7.34;79.33
30708;BME280;17458;48.958;8.284;2024-03-06T04:55:02;100634.09;;;7.34;79.02
30708;BME280;17458;48.958;8.284;2024-03-06T04:57:47;100646.59;;;7.37;79.21
30708;BME280;17458;48.958;8.284;2024-03-06T05:00:31;100640.72;;;7.41;79.04
30708;BME280;17458;48.958;8.284;2024-03-06T05:03:15;100651.47;;;7.44;79.38
30708;BME280;17458;48.958;8.284;2024-03-06T05:05:59;100659.59;;;7.47;79.49
30708;BME280;17458;48.958;8.284;2024-03-06T05:08:42;100654.41;;;7.48;79.66
30708;BME280;17458;48.958;8.284;2024-03-06T05:11:26;100652.69;;;7.49;79.39
30708;BME280;17458;48.958;8.284;2024-03-06T05:14:11;100660.13;;;7.55;79.53
30708;BME280;17458;48.958;8.284;2024-03-06T05:16:55;100658.41;;;7.55;79.38
30708;BME280;17458;48.958;8.284;2024-03-06T05:19:39;100665.81;;;7.47;79.46
30708;BME280;17458;48.958;8.284;2024-03-06T05:22:23;100667.34;;;7.57;79.77
30708;BME280;17458;48.958;8.284;2024-03-06T05:25:07;100676.69;;;7.52;79.77
30708;BME280;17458;48.958;8.284;2024-03-06T05:27:51;100681.47;;;7.58;79.54
30708;BME280;17458;48.958;8.284;2024-03-06T05:30:35;100687.88;;;7.61;79.69
30708;BME280;17458;48.958;8.284;2024-03-06T05:33:19;100685.22;;;7.61;79.42
30708;BME280;17458;48.958;8.284;2024-03-06T05:36:03;100690.72;;;7.64;79.17
30708;BME280;17458;48.958;8.284;2024-03-06T05:38:48;100695.91;;;7.63;79.18
30708;BME280;17458;48.958;8.284;2024-03-06T05:41:33;100700.47;;;7.39;80.26
30708;BME280;17458;48.958;8.284;2024-03-06T05:44:17;100703.69;;;7.35;80.63
30708;BME280;17458;48.958;8.284;2024-03-06T05:47:02;100710.50;;;7.31;80.98
30708;BME280;17458;48.958;8.284;2024-03-06T05:49:47;100711.00;;;7.26;80.97
30708;BME280;17458;48.958;8.284;2024-03-06T05:52:31;100712.28;;;7.19;81.54
30708;BME280;17458;48.958;8.284;2024-03-06T05:55:15;100718.50;;;7.20;81.76
30708;BME280;17458;48.958;8.284;2024-03-06T05:57:59;100716.41;;;7.27;81.78
30708;BME280;17458;48.958;8.284;2024-03-06T06:00:43;100727.88;;;7.28;81.32
30708;BME280;17458;48.958;8.284;2024-03-06T06:03:27;100728.81;;;7.28;81.33
30708;BME280;17458;48.958;8.284;2024-03-06T06:06:15;100729.72;;;7.29;81.22
30708;BME280;17458;48.958;8.284;2024-03-06T06:08:59;100733.47;;;7.32;81.14
30708;BME280;17458;48.958;8.284;2024-03-06T06:11:44;100735.28;;;7.33;81.27
30708;BME280;17458;48.958;8.284;2024-03-06T06:14:28;100734.00;;;7.40;81.39
30708;BME280;17458;48.958;8.284;2024-03-06T06:17:13;100742.94;;;7.42;81.58
30708;BME280;17458;48.958;8.284;2024-03-06T06:19:59;100743.94;;;7.44;81.53
30708;BME280;17458;48.958;8.284;2024-03-06T06:22:44;100752.09;;;7.47;81.33
30708;BME280;17458;48.958;8.284;2024-03-06T06:25:28;100751.19;;;7.60;81.17
30708;BME280;17458;48.958;8.284;2024-03-06T06:28:12;100755.06;;;7.65;80.92
30708;BME280;17458;48.958;8.284;2024-03-06T06:30:56;100755.28;;;7.68;81.48
30708;BME280;17458;48.958;8.284;2024-03-06T06:33:40;100765.56;;;7.76;81.38
30708;BME280;17458;48.958;8.284;2024-03-06T06:36:23;100769.53;;;7.83;80.79
30708;BME280;17458;48.958;8.284;2024-03-06T06:39:07;100769.44;;;7.81;81.03
30708;BME280;17458;48.958;8.284;2024-03-06T06:41:52;100773.28;;;7.87;81.15
30708;BME280;17458;48.958;8.284;2024-03-06T06:44:36;100780.00;;;7.95;81.08
30708;BME280;17458;48.958;8.284;2024-03-06T06:47:20;100782.88;;;7.98;80.95
30708;BME280;17458;48.958;8.284;2024-03-06T06:50:04;100782.56;;;8.06;80.89
30708;BME280;17458;48.958;8.284;2024-03-06T06:52:48;100782.97;;;8.12;80.94
30708;BME280;17458;48.958;8.284;2024-03-06T06:55:32;100783.38;;;8.18;81.04
30708;BME280;17458;48.958;8.284;2024-03-06T06:58:16;100784.00;;;8.28;80.62
30708;BME280;17458;48.958;8.284;2024-03-06T07:01:00;100798.66;;;8.36;80.78
30708;BME280;17458;48.958;8.284;2024-03-06T07:03:44;100796.09;;;8.50;80.30
30708;BME280;17458;48.958;8.284;2024-03-06T07:06:28;100795.59;;;8.56;80.42
30708;BME280;17458;48.958;8.284;2024-03-06T07:09:12;100798.00;;;8.66;80.39
30708;BME280;17458;48.958;8.284;2024-03-06T07:12:00;100810.19;;;8.77;79.94
30708;BME280;17458;48.958;8.284;2024-03-06T07:14:44;100815.50;;;8.77;80.26
30708;BME280;17458;48.958;8.284;2024-03-06T07:17:28;100817.84;;;8.73;80.79
30708;BME280;17458;48.958;8.284;2024-03-06T07:20:12;100813.88;;;8.79;80.37
30708;BME280;17458;48.958;8.284;2024-03-06T07:22:57;100815.69;;;8.80;80.33
30708;BME280;17458;48.958;8.284;2024-03-06T07:25:42;100818.13;;;8.77;80.61
30708;BME280;17458;48.958;8.284;2024-03-06T07:28:26;100822.31;;;8.74;81.23
30708;BME280;17458;48.958;8.284;2024-03-06T07:31:10;100817.13;;;8.75;81.29
30708;BME280;17458;48.958;8.284;2024-03-06T07:33:54;100818.06;;;8.63;81.34
30708;BME280;17458;48.958;8.284;2024-03-06T07:36:37;100827.03;;;8.65;81.41
30708;BME280;17458;48.958;8.284;2024-03-06T07:39:21;100825.00;;;8.47;82.16
30708;BME280;17458;48.958;8.284;2024-03-06T07:42:05;100829.16;;;8.57;82.16
30708;BME280;17458;48.958;8.284;2024-03-06T07:44:49;100827.34;;;8.69;82.21
30708;BME280;17458;48.958;8.284;2024-03-06T07:47:34;100819.78;;;8.62;82.38
30708;BME280;17458;48.958;8.284;2024-03-06T07:50:19;100825.81;;;8.60;82.96
30708;BME280;17458;48.958;8.284;2024-03-06T07:53:03;100827.53;;;8.59;82.43
30708;BME280;17458;48.958;8.284;2024-03-06T07:55:47;100813.16;;;8.82;82.10
30708;BME280;17458;48.958;8.284;2024-03-06T07:58:30;100823.91;;;8.98;81.70
30708;BME280;17458;48.958;8.284;2024-03-06T08:01:15;100827.69;;;8.88;81.75
30708;BME280;17458;48.958;8.284;2024-03-06T08:03:59;100824.47;;;9.07;81.49
30708;BME280;17458;48.958;8.284;2024-03-06T08:06:43;100830.13;;;8.85;81.39
30708;BME280;17458;48.958;8.284;2024-03-06T08:09:27;100837.44;;;9.03;81.39
30708;BME280;17458;48.958;8.284;2024-03-06T08:12:12;100832.59;;;8.82;81.38
30708;BME280;17458;48.958;8.284;2024-03-06T08:14:56;100847.34;;;8.92;82.29
30708;BME280;17458;48.958;8.284;2024-03-06T08:17:42;100843.13;;;9.09;80.14
30708;BME280;17458;48.958;8.284;2024-03-06T08:20:26;100847.38;;;9.20;80.46
30708;BME280;17458;48.958;8.284;2024-03-06T08:23:11;100850.44;;;9.41;80.15
30708;BME280;17458;48.958;8.284;2024-03-06T08:25:55;100843.22;;;9.38;79.26
30708;BME280;17458;48.958;8.284;2024-03-06T08:28:39;100850.34;;;9.39;79.27
30708;BME280;17458;48.958;8.284;2024-03-06T08:31:23;100844.72;;;9.63;79.71
30708;BME280;17458;48.958;8.284;2024-03-06T08:34:09;100854.13;;;9.57;78.61
30708;BME280;17458;48.958;8.284;2024-03-06T08:36:53;100850.16;;;9.79;78.78
30708;BME280;17458;48.958;8.284;2024-03-06T08:39:39;100853.88;;;9.97;78.92
30708;BME280;17458;48.958;8.284;2024-03-06T08:42:23;100851.97;;;9.80;79.06
30708;BME280;17458;48.958;8.284;2024-03-06T08:45:07;100856.63;;;9.84;78.48
30708;BME280;17458;48.958;8.284;2024-03-06T08:47:52;100861.31;;;9.88;78.33
30708;BME280;17458;48.958;8.284;2024-03-06T08:50:38;100859.84;;;9.93;78.29
30708;BME280;17458;48.958;8.284;2024-03-06T08:53:22;100862.53;;;10.08;77.63
30708;BME280;17458;48.958;8.284;2024-03-06T08:56:07;100869.22;;;9.58;78.04
30708;BME280;17458;48.958;8.284;2024-03-06T08:58:51;100865.06;;;9.91;77.36
30708;BME280;17458;48.958;8.284;2024-03-06T09:01:35;100861.94;;;9.84;76.77
30708;BME280;17458;48.958;8.284;2024-03-06T09:04:19;100864.75;;;9.72;77.35
30708;BME280;17458;48.958;8.284;2024-03-06T09:07:03;100874.78;;;10.06;76.73
30708;BME280;17458;48.958;8.284;2024-03-06T09:09:47;100879.09;;;10.18;75.55
30708;BME280;17458;48.958;8.284;2024-03-06T09:12:31;100886.44;;;10.22;75.57
30708;BME280;17458;48.958;8.284;2024-03-06T09:15:16;100893.63;;;9.95;75.80
30708;BME280;17458;48.958;8.284;2024-03-06T09:18:01;100885.00;;;10.14;76.08
30708;BME280;17458;48.958;8.284;2024-03-06T09:20:47;100890.66;;;10.19;75.63
30708;BME280;17458;48.958;8.284;2024-03-06T09:23:31;100886.94;;;10.17;75.75
30708;BME280;17458;48.958;8.284;2024-03-06T09:26:17;100895.38;;;10.10;77.08
30708;BME280;17458;48.958;8.284;2024-03-06T09:29:01;100883.28;;;10.15;74.76
30708;BME280;17458;48.958;8.284;2024-03-06T09:31:45;100893.09;;;10.60;74.57
30708;BME280;17458;48.958;8.284;2024-03-06T09:34:29;100894.06;;;10.03;74.78
30708;BME280;17458;48.958;8.284;2024-03-06T09:37:13;100906.06;;;10.11;74.30
30708;BME280;17458;48.958;8.284;2024-03-06T09:39:57;100897.78;;;10.35;74.54
30708;BME280;17458;48.958;8.284;2024-03-06T09:42:41;100899.81;;;10.24;74.42
30708;BME280;17458;48.958;8.284;2024-03-06T09:45:27;100901.16;;;10.32;73.94
30708;BME280;17458;48.958;8.284;2024-03-06T09:48:11;100903.53;;;10.42;74.19
30708;BME280;17458;48.958;8.284;2024-03-06T09:51:00;100899.06;;;10.87;72.89
30708;BME280;17458;48.958;8.284;2024-03-06T09:53:45;100898.91;;;10.69;72.24
30708;BME280;17458;48.958;8.284;2024-03-06T09:56:29;100895.84;;;10.47;73.71
30708;BME280;17458;48.958;8.284;2024-03-06T09:59:14;100910.56;;;11.02;71.29
30708;BME280;17458;48.958;8.284;2024-03-06T10:02:04;100916.66;;;11.16;70.09
30708;BME280;17458;48.958;8.284;2024-03-06T10:04:54;100915.38;;;10.93;70.71
30708;BME280;17458;48.958;8.284;2024-03-06T10:07:38;100909.00;;;10.75;71.51
30708;BME280;17458;48.958;8.284;2024-03-06T10:10:25;100914.09;;;11.17;70.33
30708;BME280;17458;48.958;8.284;2024-03-06T10:13:09;100910.03;;;11.24;69.94
30708;BME280;17458;48.958;8.284;2024-03-06T10:16:00;100907.72;;;11.30;69.78
30708;BME280;17458;48.958;8.284;2024-03-06T10:18:46;100911.72;;;11.54;68.32
30708;BME280;17458;48.958;8.284;2024-03-06T10:21:31;100912.47;;;11.68;69.28
30708;BME280;17458;48.958;8.284;2024-03-06T10:24:22;100909.75;;;11.50;67.91
30708;BME280;17458;48.958;8.284;2024-03-06T10:27:15;100912.94;;;11.76;67.18
30708;BME280;17458;48.958;8.284;2024-03-06T10:30:03;100908.31;;;11.41;69.86
30708;BME280;17458;48.958;8.284;2024-03-06T10:32:47;100904.00;;;11.43;68.77
30708;BME280;17458;48.958;8.284;2024-03-06T10:35:35;100908.41;;;11.75;68.91
30708;BME280;17458;48.958;8.284;2024-03-06T10:38:23;100904.69;;;11.87;66.38
30708;BME280;17458;48.958;8.284;2024-03-06T10:41:09;100906.59;;;12.06;66.85
30708;BME280;17458;48.958;8.284;2024-03-06T10:43:59;100908.28;;;11.88;67.28
30708;BME280;17458;48.958;8.284;2024-03-06T10:46:44;100910.66;;;12.16;65.97
30708;BME280;17458;48.958;8.284;2024-03-06T10:49:31;100905.56;;;12.20;64.88
30708;BME280;17458;48.958;8.284;2024-03-06T10:52:18;100914.88;;;12.12;65.01
30708;BME280;17458;48.958;8.284;2024-03-06T10:55:04;100906.06;;;11.32;67.33
30708;BME280;17458;48.958;8.284;2024-03-06T10:57:48;100914.88;;;11.78;67.18
30708;BME280;17458;48.958;8.284;2024-03-06T11:00:33;100911.47;;;11.66;67.16
30708;BME280;17458;48.958;8.284;2024-03-06T11:03:17;100904.44;;;11.83;67.05
30708;BME280;17458;48.958;8.284;2024-03-06T11:06:02;100917.16;;;11.88;66.48
30708;BME280;17458;48.958;8.284;2024-03-06T11:08:47;100917.47;;;11.62;66.89
30708;BME280;17458;48.958;8.284;2024-03-06T11:11:32;100912.25;;;11.63;67.41
30708;BME280;17458;48.958;8.284;2024-03-06T11:14:15;100924.50;;;11.76;67.96
30708;BME280;17458;48.958;8.284;2024-03-06T11:17:13;100910.16;;;11.74;66.68
30708;BME280;17458;48.958;8.284;2024-03-06T11:28:32;100919.41;;;11.64;66.84
30708;BME280;17458;48.958;8.284;2024-03-06T11:31:18;100919.31;;;11.63;68.47
30708;BME280;17458;48.958;8.284;2024-03-06T11:34:04;100921.41;;;11.85;66.62
30708;BME280;17458;48.958;8.284;2024-03-06T11:36:53;100915.91;;;11.98;67.18
30708;BME280;17458;48.958;8.284;2024-03-06T11:39:39;100919.56;;;12.00;65.77
30708;BME280;17458;48.958;8.284;2024-03-06T11:42:34;100914.88;;;11.78;66.48
30708;BME280;17458;48.958;8.284;2024-03-06T11:45:22;100924.94;;;11.69;65.95
30708;BME280;17458;48.958;8.284;2024-03-06T11:48:14;100921.06;;;11.62;66.00
30708;BME280;17458;48.958;8.284;2024-03-06T11:51:01;100912.81;;;11.42;67.65
30708;BME280;17458;48.958;8.284;2024-03-06T11:53:50;100913.06;;;11.62;65.83
30708;BME280;17458;48.958;8.284;2024-03-06T11:56:35;100918.97;;;11.73;66.25
30708;BME280;17458;48.958;8.284;2024-03-06T11:59:24;100916.53;;;11.76;66.71
30708;BME280;17458;48.958;8.284;2024-03-06T12:02:09;100915.47;;;11.42;66.19
30708;BME280;17458;48.958;8.284;2024-03-06T12:04:54;100917.22;;;11.57;66.35
30708;BME280;17458;48.958;8.284;2024-03-06T12:07:48;100917.72;;;11.50;66.91
30708;BME280;17458;48.958;8.284;2024-03-06T12:10:36;100913.47;;;11.70;65.64
30708;BME280;17458;48.958;8.284;2024-03-06T12:13:21;100915.31;;;11.71;66.09
30708;BME280;17458;48.958;8.284;2024-03-06T12:16:06;100914.44;;;11.87;66.13
30708;BME280;17458;48.958;8.284;2024-03-06T12:18:57;100912.47;;;11.52;66.54
30708;BME280;17458;48.958;8.284;2024-03-06T12:21:41;100912.13;;;11.77;66.20
30708;BME280;17458;48.958;8.284;2024-03-06T12:24:26;100910.41;;;11.62;66.31
30708;BME280;17458;48.958;8.284;2024-03-06T12:27:10;100913.53;;;11.39;66.73
30708;BME280;17458;48.958;8.284;2024-03-06T12:29:56;100912.72;;;11.56;67.41
30708;BME280;17458;48.958;8.284;2024-03-06T12:32:40;100907.22;;;11.37;66.36
30708;BME280;17458;48.958;8.284;2024-03-06T12:35:25;100907.59;;;11.59;66.16
30708;BME280;17458;48.958;8.284;2024-03-06T12:38:14;100904.50;;;12.00;65.60
30708;BME280;17458;48.958;8.284;2024-03-06T12:40:59;100913.00;;;11.93;66.78
30708;BME280;17458;48.958;8.284;2024-03-06T12:43:43;100906.78;;;11.93;66.12
30708;BME280;17458;48.958;8.284;2024-03-06T12:46:28;100905.44;;;12.01;66.03
30708;BME280;17458;48.958;8.284;2024-03-06T12:49:14;100907.66;;;12.10;66.03
30708;BME280;17458;48.958;8.284;2024-03-06T12:51:58;100904.31;;;12.14;65.39
30708;BME280;17458;48.958;8.284;2024-03-06T12:54:44;100904.50;;;12.17;65.08
30708;BME280;17458;48.958;8.284;2024-03-06T12:57:28;100900.28;;;12.22;65.16
30708;BME280;17458;48.958;8.284;2024-03-06T13:00:13;100908.94;;;12.52;63.92
30708;BME280;17458;48.958;8.284;2024-03-06T13:03:00;100904.69;;;12.03;65.19
30708;BME280;17458;48.958;8.284;2024-03-06T13:05:44;100900.56;;;12.10;64.33
30708;BME280;17458;48.958;8.284;2024-03-06T13:08:31;100903.84;;;11.72;64.44
30708;BME280;17458;48.958;8.284;2024-03-06T13:11:15;100893.19;;;12.04;64.68
30708;BME280;17458;48.958;8.284;2024-03-06T13:13:59;100902.31;;;12.10;64.46
30708;BME280;17458;48.958;8.284;2024-03-06T13:16:44;100892.38;;;11.89;65.27
30708;BME280;17458;48.958;8.284;2024-03-06T13:19:29;100898.53;;;12.04;65.31
30708;BME280;17458;48.958;8.284;2024-03-06T13:22:14;100894.13;;;12.05;65.36
30708;BME280;17458;48.958;8.284;2024-03-06T13:24:58;100891.75;;;12.11;64.56
30708;BME280;17458;48.958;8.284;2024-03-06T13:27:42;100895.94;;;12.06;65.22
30708;BME280;17458;48.958;8.284;2024-03-06T13:30:26;100889.38;;;11.99;65.18
30708;BME280;17458;48.958;8.284;2024-03-06T13:33:10;100892.84;;;12.49;64.59
30708;BME280;17458;48.958;8.284;2024-03-06T13:35:55;100894.09;;;12.39;63.91
30708;BME280;17458;48.958;8.284;2024-03-06T13:38:39;100891.47;;;11.89;62.76
30708;BME280;17458;48.958;8.284;2024-03-06T13:41:23;100894.38;;;12.27;62.40
30708;BME280;17458;48.958;8.284;2024-03-06T13:44:07;100890.94;;;12.46;63.55
30708;BME280;17458;48.958;8.284;2024-03-06T13:46:51;100889.63;;;12.56;61.50
30708;BME280;17458;48.958;8.284;2024-03-06T13:49:40;100900.72;;;12.29;62.05
30708;BME280;17458;48.958;8.284;2024-03-06T13:52:24;100890.63;;;12.58;61.55
30708;BME280;17458;48.958;8.284;2024-03-06T13:55:09;100898.75;;;12.78;61.79
30708;BME280;17458;48.958;8.284;2024-03-06T13:57:54;100901.94;;;12.54;63.25
30708;BME280;17458;48.958;8.284;2024-03-06T14:00:38;100896.53;;;12.34;63.87
30708;BME280;17458;48.958;8.284;2024-03-06T14:03:22;100895.00;;;12.39;63.25
30708;BME280;17458;48.958;8.284;2024-03-06T14:06:06;100892.31;;;12.22;63.73
30708;BME280;17458;48.958;8.284;2024-03-06T14:08:52;100902.09;;;11.72;65.16
30708;BME280;17458;48.958;8.284;2024-03-06T14:11:36;100904.16;;;12.11;65.11
30708;BME280;17458;48.958;8.284;2024-03-06T14:14:20;100898.63;;;12.06;65.40
30708;BME280;17458;48.958;8.284;2024-03-06T14:17:04;100900.34;;;12.05;65.93
30708;BME280;17458;48.958;8.284;2024-03-06T14:19:48;100902.09;;;12.05;65.58
30708;BME280;17458;48.958;8.284;2024-03-06T14:22:32;100898.81;;;11.93;66.67
30708;BME280;17458;48.958;8.284;2024-03-06T14:25:16;100910.19;;;12.06;68.97
30708;BME280;17458;48.958;8.284;2024-03-06T14:28:01;100909.66;;;12.14;68.29
30708;BME280;17458;48.958;8.284;2024-03-06T14:30:45;100901.81;;;12.17;68.31
30708;BME280;17458;48.958;8.284;2024-03-06T14:33:31;100899.53;;;12.06;68.27
30708;BME280;17458;48.958;8.284;2024-03-06T14:36:15;100908.22;;;12.20;69.39
30708;BME280;17458;48.958;8.284;2024-03-06T14:38:58;100909.78;;;12.33;68.64